Time,TemperatureF,DewpointF,PressureIn,WindDirection,WindDirectionDegrees,WindSpeedMPH,WindSpeedGustMPH,Humidity,HourlyPrecipIn,Conditions,Clouds,dailyrainin,SolarRadiationWatts/m^2,SoftwareType,DateUTC
2013-02-12 00:21:00,-3.0,-9.0,-100.00,NNE,19,2.0,4.0,76,-99.99,,,0.08,0.000000,,2013-02-12 07:21:00,
2013-02-12 00:31:00,-3.0,-9.0,-100.00,NNE,19,2.0,4.0,76,-99.99,,,0.08,0.000000,,2013-02-12 07:31:00,
2013-02-12 00:42:00,-3.0,-9.0,-100.00,NNE,19,2.0,4.0,76,-99.99,,,0.08,0.000000,,2013-02-12 07:42:00,
2013-02-12 00:51:00,-3.0,-9.0,-100.00,NNE,19,2.0,4.0,76,-99.99,,,0.08,0.000000,,2013-02-12 07:51:00,
2013-02-12 01:21:00,-3.0,-9.0,-100.00,NNE,20,2.0,3.0,75,0.00,,,0.08,0.000000,,2013-02-12 08:21:00,
2013-02-12 01:32:00,-3.0,-9.0,-100.00,NNE,20,2.0,3.0,75,0.00,,,0.08,0.000000,,2013-02-12 08:32:00,
2013-02-12 01:41:00,-3.0,-9.0,-100.00,NNE,20,2.0,3.0,75,0.00,,,0.08,0.000000,,2013-02-12 08:41:00,
2013-02-12 01:52:00,-3.0,-9.0,-100.00,NNE,20,2.0,3.0,75,0.00,,,0.08,0.000000,,2013-02-12 08:52:00,
2013-02-12 02:11:00,-11.0,-18.0,-100.00,NNE,25,2.0,3.0,70,0.00,,,0.08,0.000000,,2013-02-12 09:11:00,
2013-02-12 02:21:00,-11.0,-18.0,-100.00,NNE,25,2.0,3.0,70,0.00,,,0.08,0.000000,,2013-02-12 09:21:00,
2013-02-12 03:11:00,-15.0,-22.0,-100.00,NE,46,2.0,3.0,71,-99.99,,,0.08,0.000000,,2013-02-12 10:11:00,
2013-02-12 03:21:00,-15.0,-22.0,-100.00,NE,46,2.0,3.0,71,-99.99,,,0.08,0.000000,,2013-02-12 10:21:00,
2013-02-12 04:22:00,-19.0,-27.0,-100.00,NE,54,0.0,3.0,65,-99.99,,,0.08,0.000000,,2013-02-12 11:22:00,
2013-02-12 05:21:00,-20.0,-27.0,-100.00,North,350,0.0,3.0,67,-99.99,,,0.08,0.000000,,2013-02-12 12:21:00,
2013-02-12 06:22:00,-21.0,-29.0,-100.00,ENE,77,1.0,3.0,65,-99.99,,,0.08,0.000000,,2013-02-12 13:22:00,
2013-02-12 07:12:00,-19.0,-27.0,-100.00,SSE,162,0.0,2.0,65,-99.99,,,0.08,0.000000,,2013-02-12 14:12:00,
2013-02-12 07:21:00,-19.0,-27.0,-100.00,SSE,162,0.0,2.0,65,-99.99,,,0.08,0.000000,,2013-02-12 14:21:00,
2013-02-12 08:11:00,-14.0,-22.0,-100.00,East,101,1.0,3.0,65,-99.99,,,0.08,42.000000,,2013-02-12 15:11:00,
2013-02-12 08:21:00,-14.0,-22.0,-100.00,East,101,1.0,3.0,65,-99.99,,,0.08,42.000000,,2013-02-12 15:21:00,
2013-02-12 09:22:00,6.0,-2.0,-100.00,ESE,105,0.0,3.0,69,-99.99,,,0.08,186.000000,,2013-02-12 16:22:00,
2013-02-12 10:21:00,13.0,0.0,-100.00,South,181,3.0,5.0,54,0.00,,,-99.99,306.000000,,2013-02-12 17:21:00,
2013-02-12 11:23:00,14.0,-2.0,-100.00,South,184,5.0,9.0,47,0.00,,,0.08,442.000000,,2013-02-12 18:23:00,
2013-02-12 11:32:00,14.0,-2.0,-100.00,South,184,5.0,9.0,47,0.00,,,0.08,442.000000,,2013-02-12 18:32:00,
2013-02-12 11:41:00,14.0,-2.0,-100.00,South,184,5.0,9.0,47,0.00,,,0.08,442.000000,,2013-02-12 18:41:00,
2013-02-12 11:51:00,14.0,-2.0,-100.00,South,184,5.0,9.0,47,0.00,,,0.08,442.000000,,2013-02-12 18:51:00,
2013-02-12 12:11:00,16.0,-3.0,-100.00,SSE,158,8.0,11.0,41,0.00,,,0.04,601.000000,,2013-02-12 19:11:00,
2013-02-12 12:21:00,16.0,-3.0,-100.00,SSE,158,8.0,11.0,41,0.00,,,0.04,601.000000,,2013-02-12 19:21:00,
2013-02-12 12:31:00,16.0,-3.0,-100.00,SSE,158,8.0,11.0,41,0.00,,,0.04,601.000000,,2013-02-12 19:31:00,
2013-02-12 12:41:00,16.0,-3.0,-100.00,SSE,158,8.0,11.0,41,0.00,,,0.04,601.000000,,2013-02-12 19:41:00,
2013-02-12 12:51:00,16.0,-3.0,-100.00,SSE,158,8.0,11.0,41,0.00,,,0.04,601.000000,,2013-02-12 19:51:00,
2013-02-12 13:21:00,18.0,-3.0,-100.00,South,179,7.0,11.0,38,0.00,,,0.00,706.000000,,2013-02-12 20:21:00,
2013-02-12 13:32:00,18.0,-3.0,-100.00,South,179,7.0,11.0,38,0.00,,,0.00,706.000000,,2013-02-12 20:32:00,
2013-02-12 13:41:00,18.0,-3.0,-100.00,South,179,7.0,11.0,38,0.00,,,0.00,706.000000,,2013-02-12 20:41:00,
2013-02-12 13:52:00,18.0,-3.0,-100.00,South,179,7.0,11.0,38,0.00,,,0.00,706.000000,,2013-02-12 20:52:00,
2013-02-12 14:21:00,18.0,-4.0,-100.00,South,190,7.0,14.0,37,0.00,,,0.00,665.000000,,2013-02-12 21:21:00,
2013-02-12 14:31:00,18.0,-4.0,-100.00,South,190,7.0,14.0,37,0.00,,,0.00,665.000000,,2013-02-12 21:31:00,
2013-02-12 14:42:00,18.0,-4.0,-100.00,South,190,7.0,14.0,37,0.00,,,0.00,665.000000,,2013-02-12 21:42:00,
2013-02-12 14:51:00,18.0,-4.0,-100.00,South,190,7.0,14.0,37,0.00,,,0.00,665.000000,,2013-02-12 21:51:00,
2013-02-12 15:21:00,19.0,-5.0,-100.00,South,182,8.0,11.0,34,0.00,,,0.00,567.000000,,2013-02-12 22:21:00,
2013-02-12 15:42:00,19.0,-5.0,-100.00,South,182,8.0,11.0,34,0.00,,,0.00,567.000000,,2013-02-12 22:42:00,
2013-02-12 15:51:00,19.0,-5.0,-100.00,South,182,8.0,11.0,34,0.00,,,0.00,567.000000,,2013-02-12 22:51:00,
2013-02-12 16:21:00,19.0,-3.0,-100.00,SSW,209,6.0,12.0,37,0.00,,,0.00,406.000000,,2013-02-12 23:21:00,
2013-02-12 16:32:00,19.0,-3.0,-100.00,SSW,209,6.0,12.0,37,0.00,,,0.00,406.000000,,2013-02-12 23:32:00,
2013-02-12 16:42:00,19.0,-3.0,-100.00,SSW,209,6.0,12.0,37,0.00,,,0.00,406.000000,,2013-02-12 23:42:00,
2013-02-12 16:52:00,19.0,-3.0,-100.00,SSW,209,6.0,12.0,37,0.00,,,0.00,406.000000,,2013-02-12 23:52:00,
2013-02-12 17:21:00,14.0,-2.0,-100.00,South,185,5.0,10.0,48,0.00,,,0.00,162.000000,,2013-02-13 00:21:00,
2013-02-12 17:32:00,14.0,-2.0,-100.00,South,185,5.0,10.0,48,0.00,,,0.00,162.000000,,2013-02-13 00:32:00,
2013-02-12 17:42:00,14.0,-2.0,-100.00,South,185,5.0,10.0,48,0.00,,,0.00,162.000000,,2013-02-13 00:42:00,
2013-02-12 17:52:00,14.0,-2.0,-100.00,South,185,5.0,10.0,48,0.00,,,0.00,162.000000,,2013-02-13 00:52:00,
2013-02-12 18:42:00,7.0,-4.0,-100.00,SSE,166,1.0,7.0,61,0.00,,,0.00,15.000000,,2013-02-13 01:42:00,
2013-02-12 18:51:00,7.0,-4.0,-100.00,SSE,166,1.0,7.0,61,0.00,,,0.00,15.000000,,2013-02-13 01:51:00,
2013-02-12 19:41:00,-2.0,-8.0,-100.00,North,358,1.0,3.0,75,-99.99,,,0.00,0.000000,,2013-02-13 02:41:00,
2013-02-12 19:52:00,-2.0,-8.0,-100.00,North,358,1.0,3.0,75,-99.99,,,0.00,0.000000,,2013-02-13 02:52:00,
2013-02-12 20:21:00,0.0,-7.0,-100.00,NE,42,2.0,4.0,73,-99.99,,,0.00,0.000000,,2013-02-13 03:21:00,
2013-02-12 21:11:00,-1.0,-7.0,-100.00,SSE,153,1.0,3.0,76,-99.99,,,0.00,0.000000,,2013-02-13 04:11:00,
2013-02-12 21:21:00,-1.0,-7.0,-100.00,SSE,153,1.0,3.0,76,-99.99,,,0.00,0.000000,,2013-02-13 04:21:00,
2013-02-12 22:22:00,0.0,-5.0,-100.00,NE,34,1.0,3.0,77,-99.99,,,0.00,0.000000,,2013-02-13 05:22:00,
2013-02-12 23:11:00,4.0,-2.0,-100.00,NNE,28,4.0,5.0,77,-99.99,,,0.00,0.000000,,2013-02-13 06:11:00,
2013-02-12 23:21:00,4.0,-2.0,-100.00,NNE,28,4.0,5.0,77,-99.99,,,0.00,0.000000,,2013-02-13 06:21:00,
2013-02-12 23:32:00,4.0,-2.0,-100.00,NNE,28,4.0,5.0,77,-99.99,,,0.00,0.000000,,2013-02-13 06:32:00,